INDIA METEOROLOGICAL DEPARTMENT, R.M.C. NEW DELHI
Dated:28 - 7 - 2015
METARS


Ahmedabad  
VAAH 282140Z 23010KT 3000 -RA SCT010 SCT020 OVC080 25/23 Q1000 NOSIG=
Amritsar   
VIAR 282130Z VRB01KT 2500 BR FEW040 SCT100 28/27 Q1000=
Aurangabad 
VAAU 282100Z 25005KT 6000 SCT020 SCT025 23/19 Q1008=
Bangalore  
VOBL 282130Z 25006KT 6000 FEW015 25/24 Q1015 NOSIG=
Bhopal     
VABP 282100Z 20010KT 6000 SCT020 SCT100 23/21 Q1005 NO SIG=
Bhubaneswar
VEBS 282100Z 20004KT 3000 HZ BKN018 OVC090 26/25 Q1001=
Chennai    
VOMM 282140Z 20003KT 6000 SCT020 BKN100 26/23 Q1007 NOSIG=
Coimbatore 
VOCB 282100Z 18006KT 6000 FEW015 24/22 Q1012 NOSIG=
Colombo    
VCBI 282140Z 15005KT 9999 SCT018 25/23 Q1010 NOSIG=
Delhi      
VIDP 282130Z 13006KT 3000 BR SCT100 26/22 Q1001 NOSIG =
Hyderabad  
VOHS 282140Z 26010KT 5000 HZ FEW015 SCT100 23/19 Q1009 NOSIG=
Jaipur     
VIJP 282130Z 15010KT 2000 DZ SCT010 SCT025 BKN090 23/23 Q0999 NOSIG=
Kochi      
VOCI 282100Z 00000KT 4000 HZ SCT015 SCT080 26/23 Q1010 TEMPO RA=
Kolkata    
VECC 282120Z 33009KT 2800 HZ SCT018 FEW030CB SCT100 27/26 Q0997 TEMPO TL2250 2000 TSRA=
Kozhikode  
VOCL 282130Z 00000KT 6000 FEW015 BKN090 25/24 Q1010 NOSIG=
Lucknow    
VILK 282130Z 28005KT 5000 HZ FEW020 SCT100 28/23 Q1001=
Madurai    
VOMD 282100Z 00000KT 5000 HZ FEW018 BKN100 25/23 Q1010 NOSIG=
Mumbai     
VABB 282110Z 23008G18KT 2500 HZ FEW012 SCT018 FEW025TCU OVC090 27/25 Q1006 NOSIG=
Nagpur     
VANP 282110Z 26502KT 4000 HZ SCT020 BKN100 23/21 Q1007 NOSIG=
Patna      
VEPT 282050Z NIL=
Trichy     
VOTR 282110Z 19002KT 6000 SCT016 SCT100 27/22 Q1009 NOSIG=
Trivandrum 
VOTV 282140Z 28005KT 3000 HZ FEW018 25/23 Q1010 NOSIG=
Vizag      
VOVZ 282100Z 25003KT 4500 BR SCT018 BKN090 29/27 Q1003 TEMPO 4000 -RA/DZ =
Male       
VRMM 282100Z 00000KT 9999 FEW018 BKN120 28/24 Q1012 NOSIG=
Gan        
VRMG 282100Z 13005KT 9999 SCT017TCU BKN120 24/21 Q1012=
Kathmandu   
VNKT 282050Z 130034KT 7000 FEW015 SCT030 BKN100 21/20 Q1009 NOSIG=
Dhaka      
VGHS 282120Z 34007KT 3500 DZ BKN010 BKN100 26/25 Q0996 TEMPO RA=
Colombo     
VCBI 282140Z 15005KT 9999 SCT018 25/23 Q1010 NOSIG=
Karachi     
OPKC 282130Z 25010KT 5000 FU SCT020 BKN090 28/24 Q1000 NOSIG=
Lahore      
OPLA 282125Z 06005KT 4000 FU SCT040 28/24 Q1000=